sensor_id;sensor_type;location;lat;lon;timestamp;pressure;altitude;pressure_sealevel;temperature;humidity
59859;BME280;45734;53.648;9.566;2023-05-10T00:04:26;92853.78;;;-145.06;45.13
59859;BME280;45734;53.648;9.566;2023-05-10T00:09:27;92866.03;;;-145.06;45.44
59859;BME280;45734;53.648;9.566;2023-05-10T00:14:27;92880.34;;;-145.06;46.16
59859;BME280;45734;53.648;9.566;2023-05-10T00:19:28;92878.31;;;-145.06;46.19
59859;BME280;45734;53.648;9.566;2023-05-10T00:24:28;92892.63;;;-145.06;46.74
59859;BME280;45734;53.648;9.566;2023-05-10T00:29:28;92913.06;;;-145.06;47.30
59859;BME280;45734;53.648;9.566;2023-05-10T00:34:29;92913.06;;;-145.06;48.46
59859;BME280;45734;53.648;9.566;2023-05-10T00:39:29;92941.69;;;-145.06;48.82
59859;BME280;45734;53.648;9.566;2023-05-10T00:44:29;92966.25;;;-145.06;49.29
59859;BME280;45734;53.648;9.566;2023-05-10T00:49:30;92958.06;;;-145.06;50.40
59859;BME280;45734;53.648;9.566;2023-05-10T00:54:31;92974.41;;;-145.06;50.78
59859;BME280;45734;53.648;9.566;2023-05-10T00:59:32;93023.50;;;-145.06;51.90
59859;BME280;45734;53.648;9.566;2023-05-10T01:04:32;93035.78;;;-145.06;52.82
59859;BME280;45734;53.648;9.566;2023-05-10T01:09:33;93068.50;;;-145.06;53.29
59859;BME280;45734;53.648;9.566;2023-05-10T01:14:34;93074.63;;;-145.06;54.25
59859;BME280;45734;53.648;9.566;2023-05-10T01:19:36;93093.03;;;-145.06;54.95
59859;BME280;45734;53.648;9.566;2023-05-10T01:30:26;93103.25;;;-145.06;56.69
59859;BME280;45734;53.648;9.566;2023-05-10T01:46:08;93172.78;;;-145.06;58.56
59859;BME280;45734;53.648;9.566;2023-05-10T01:51:13;93168.72;;;-145.06;59.03
59859;BME280;45734;53.648;9.566;2023-05-10T01:56:16;93117.56;;;-145.06;59.44
59859;BME280;45734;53.648;9.566;2023-05-10T02:01:21;93152.34;;;-145.06;59.72
59859;BME280;45734;53.648;9.566;2023-05-10T02:06:22;93197.34;;;-145.06;60.23
59859;BME280;45734;53.648;9.566;2023-05-10T02:11:24;93162.56;;;-145.06;60.23
59859;BME280;45734;53.648;9.566;2023-05-10T02:16:27;93162.56;;;-145.06;60.86
59859;BME280;45734;53.648;9.566;2023-05-10T02:21:29;93174.84;;;-145.06;61.04
59859;BME280;45734;53.648;9.566;2023-05-10T02:26:32;93223.94;;;-145.06;60.84
59859;BME280;45734;53.648;9.566;2023-05-10T02:31:34;93152.34;;;-145.06;61.25
59859;BME280;45734;53.648;9.566;2023-05-10T02:36:35;93205.53;;;-145.06;62.29
59859;BME280;45734;53.648;9.566;2023-05-10T02:41:37;93174.84;;;-145.06;61.97
59859;BME280;45734;53.648;9.566;2023-05-10T02:46:37;93178.94;;;-145.06;62.09
59859;BME280;45734;53.648;9.566;2023-05-10T02:51:42;93178.94;;;-145.06;62.58
59859;BME280;45734;53.648;9.566;2023-05-10T02:56:47;93203.47;;;-145.06;63.09
59859;BME280;45734;53.648;9.566;2023-05-10T03:01:49;93185.06;;;-145.06;63.31
59859;BME280;45734;53.648;9.566;2023-05-10T03:06:49;93189.16;;;-145.06;63.53
59859;BME280;45734;53.648;9.566;2023-05-10T03:17:06;93138.03;;;-145.06;63.25
59859;BME280;45734;53.648;9.566;2023-05-10T03:22:10;93117.56;;;-145.06;63.32
59859;BME280;45734;53.648;9.566;2023-05-10T03:27:11;93080.75;;;-145.06;63.73
59859;BME280;45734;53.648;9.566;2023-05-10T03:32:13;93095.09;;;-145.06;63.19
59859;BME280;45734;53.648;9.566;2023-05-10T03:37:14;92475.47;;;-145.06;63.32
59859;BME280;45734;53.648;9.566;2023-05-10T03:42:14;92389.59;;;-145.06;62.77
59859;BME280;45734;53.648;9.566;2023-05-10T03:47:14;92598.16;;;-145.06;62.45
59859;BME280;45734;53.648;9.566;2023-05-10T03:52:15;92363.00;;;-145.06;62.54
59859;BME280;45734;53.648;9.566;2023-05-10T03:57:15;92410.03;;;-145.06;62.28
59859;BME280;45734;53.648;9.566;2023-05-10T04:02:15;92291.44;;;-145.06;61.72
59859;BME280;45734;53.648;9.566;2023-05-10T04:07:16;92285.31;;;-145.06;61.55
59859;BME280;45734;53.648;9.566;2023-05-10T04:12:16;92291.44;;;-145.06;60.99
59859;BME280;45734;53.648;9.566;2023-05-10T04:17:16;92254.63;;;-145.06;60.66
59859;BME280;45734;53.648;9.566;2023-05-10T04:22:17;92318.00;;;-145.06;60.57
59859;BME280;45734;53.648;9.566;2023-05-10T04:27:17;92346.66;;;-145.06;60.83
59859;BME280;45734;53.648;9.566;2023-05-10T04:32:18;92228.06;;;-145.06;60.56
59859;BME280;45734;53.648;9.566;2023-05-10T04:37:19;92115.59;;;-145.06;59.54
59859;BME280;45734;53.648;9.566;2023-05-10T04:42:21;92031.78;;;-145.06;58.11
59859;BME280;45734;53.648;9.566;2023-05-10T04:47:21;92031.78;;;-145.06;56.34
59859;BME280;45734;53.648;9.566;2023-05-10T04:52:21;92007.22;;;-145.06;56.12
59859;BME280;45734;53.648;9.566;2023-05-10T04:57:22;91931.59;;;-145.06;56.23
59859;BME280;45734;53.648;9.566;2023-05-10T05:02:22;91721.00;;;-145.06;54.27
59859;BME280;45734;53.648;9.566;2023-05-10T05:07:23;91577.91;;;-145.06;51.06
59859;BME280;45734;53.648;9.566;2023-05-10T05:12:23;91696.47;;;-145.06;50.26
59859;BME280;45734;53.648;9.566;2023-05-10T05:17:24;91849.81;;;-145.06;51.72
59859;BME280;45734;53.648;9.566;2023-05-10T05:22:24;91874.34;;;-145.06;51.83
59859;BME280;45734;53.648;9.566;2023-05-10T05:27:28;91988.84;;;-145.06;52.03
59859;BME280;45734;53.648;9.566;2023-05-10T05:32:28;92068.56;;;-145.06;53.25
59859;BME280;45734;53.648;9.566;2023-05-10T05:37:28;92111.50;;;-145.06;54.08
59859;BME280;45734;53.648;9.566;2023-05-10T05:42:30;92181.03;;;-145.06;55.70
59859;BME280;45734;53.648;9.566;2023-05-10T05:47:31;92144.22;;;-145.06;57.30
59859;BME280;45734;53.648;9.566;2023-05-10T05:52:31;92119.69;;;-145.06;56.64
59859;BME280;45734;53.648;9.566;2023-05-10T05:57:32;92089.03;;;-145.06;56.02
59859;BME280;45734;53.648;9.566;2023-05-10T06:02:33;92076.75;;;-145.06;56.08
59859;BME280;45734;53.648;9.566;2023-05-10T06:07:33;92129.91;;;-145.06;56.44
59859;BME280;45734;53.648;9.566;2023-05-10T06:12:33;92103.31;;;-145.06;56.86
59859;BME280;45734;53.648;9.566;2023-05-10T06:17:34;92086.97;;;-145.06;56.68
59859;BME280;45734;53.648;9.566;2023-05-10T06:22:34;92136.03;;;-145.06;57.62
59859;BME280;45734;53.648;9.566;2023-05-10T06:27:35;92068.56;;;-145.06;56.09
59859;BME280;45734;53.648;9.566;2023-05-10T06:32:35;92119.69;;;-145.06;57.63
59859;BME280;45734;53.648;9.566;2023-05-10T06:37:35;92181.03;;;-145.06;57.84
59859;BME280;45734;53.648;9.566;2023-05-10T06:42:36;92162.63;;;-145.06;57.87
59859;BME280;45734;53.648;9.566;2023-05-10T06:47:36;92181.03;;;-145.06;58.69
59859;BME280;45734;53.648;9.566;2023-05-10T06:52:37;92183.06;;;-145.06;58.56
59859;BME280;45734;53.648;9.566;2023-05-10T06:57:37;92156.50;;;-145.06;58.88
59859;BME280;45734;53.648;9.566;2023-05-10T07:02:38;92136.03;;;-145.06;59.26
59859;BME280;45734;53.648;9.566;2023-05-10T07:07:38;92142.19;;;-145.06;59.79
59859;BME280;45734;53.648;9.566;2023-05-10T07:12:38;92205.56;;;-145.06;60.83
59859;BME280;45734;53.648;9.566;2023-05-10T07:17:39;92189.19;;;-145.06;59.21
59859;BME280;45734;53.648;9.566;2023-05-10T07:22:39;92170.81;;;-145.06;59.87
59859;BME280;45734;53.648;9.566;2023-05-10T07:27:40;92172.84;;;-145.06;59.81
59859;BME280;45734;53.648;9.566;2023-05-10T07:32:40;92164.66;;;-145.06;60.09
59859;BME280;45734;53.648;9.566;2023-05-10T07:37:41;92172.84;;;-145.06;61.00
59859;BME280;45734;53.648;9.566;2023-05-10T07:42:42;92230.09;;;-145.06;61.86
59859;BME280;45734;53.648;9.566;2023-05-10T07:47:42;92242.38;;;-145.06;61.21
59859;BME280;45734;53.648;9.566;2023-05-10T07:52:42;92293.47;;;-145.06;63.32
59859;BME280;45734;53.648;9.566;2023-05-10T07:57:43;92287.34;;;-145.06;62.42
59859;BME280;45734;53.648;9.566;2023-05-10T08:02:43;92360.97;;;-145.06;69.02
59859;BME280;45734;53.648;9.566;2023-05-10T08:07:43;92393.66;;;-145.06;75.24
59859;BME280;45734;53.648;9.566;2023-05-10T08:12:44;92452.97;;;-145.06;82.69
59859;BME280;45734;53.648;9.566;2023-05-10T08:17:44;92438.66;;;-145.06;82.13
59859;BME280;45734;53.648;9.566;2023-05-10T08:22:45;92446.84;;;-145.06;84.09
59859;BME280;45734;53.648;9.566;2023-05-10T08:27:46;92401.84;;;-145.06;86.07
59859;BME280;45734;53.648;9.566;2023-05-10T08:32:46;92430.47;;;-145.06;85.17
59859;BME280;45734;53.648;9.566;2023-05-10T08:37:47;92369.13;;;-145.06;84.00
59859;BME280;45734;53.648;9.566;2023-05-10T08:43:08;92377.31;;;-145.06;85.66
59859;BME280;45734;53.648;9.566;2023-05-10T08:48:09;92436.63;;;-145.06;83.85
59859;BME280;45734;53.648;9.566;2023-05-10T08:53:12;92446.84;;;-145.06;85.73
59859;BME280;45734;53.648;9.566;2023-05-10T08:58:13;92485.69;;;-145.06;88.43
59859;BME280;45734;53.648;9.566;2023-05-10T09:03:13;92563.38;;;-145.06;92.28
59859;BME280;45734;53.648;9.566;2023-05-10T09:08:15;92624.72;;;-145.06;96.32
59859;BME280;45734;53.648;9.566;2023-05-10T09:13:16;92643.13;;;-145.06;100.00
59859;BME280;45734;53.648;9.566;2023-05-10T09:18:17;92679.94;;;-145.06;100.00
59859;BME280;45734;53.648;9.566;2023-05-10T09:23:17;92743.34;;;-145.06;100.00
59859;BME280;45734;53.648;9.566;2023-05-10T09:28:17;92810.81;;;-145.06;100.00
59859;BME280;45734;53.648;9.566;2023-05-10T09:33:18;92917.16;;;-145.06;100.00
59859;BME280;45734;53.648;9.566;2023-05-10T09:38:19;93172.78;;;-145.06;100.00
59859;BME280;45734;53.648;9.566;2023-05-10T09:43:20;93135.97;;;-145.06;100.00
59859;BME280;45734;53.648;9.566;2023-05-10T09:48:23;93125.75;;;-145.06;100.00
59859;BME280;45734;53.648;9.566;2023-05-10T09:53:24;93144.16;;;-145.06;100.00
59859;BME280;45734;53.648;9.566;2023-05-10T09:58:24;93099.16;;;-145.06;100.00
59859;BME280;45734;53.648;9.566;2023-05-10T10:03:24;93105.31;;;-145.06;100.00
59859;BME280;45734;53.648;9.566;2023-05-10T10:08:25;93019.41;;;-145.06;100.00
59859;BME280;45734;53.648;9.566;2023-05-10T10:13:27;93072.59;;;-145.06;100.00
59859;BME280;45734;53.648;9.566;2023-05-10T10:18:27;93019.41;;;-145.06;100.00
59859;BME280;45734;53.648;9.566;2023-05-10T10:23:28;93113.50;;;-145.06;100.00
59859;BME280;45734;53.648;9.566;2023-05-10T10:34:22;93129.84;;;-145.06;100.00
59859;BME280;45734;53.648;9.566;2023-05-10T10:39:26;93031.69;;;-145.06;100.00
59859;BME280;45734;53.648;9.566;2023-05-10T10:44:35;93064.41;;;-145.06;100.00
59859;BME280;45734;53.648;9.566;2023-05-10T10:54:39;93097.13;;;-145.06;100.00
59859;BME280;45734;53.648;9.566;2023-05-10T10:59:43;93138.03;;;-145.06;100.00
59859;BME280;45734;53.648;9.566;2023-05-10T11:04:44;93305.72;;;-145.06;100.00
59859;BME280;45734;53.648;9.566;2023-05-10T11:09:49;93250.50;;;-145.06;100.00
59859;BME280;45734;53.648;9.566;2023-05-10T11:14:50;93207.56;;;-145.06;100.00
59859;BME280;45734;53.648;9.566;2023-05-10T11:20:10;93162.56;;;-145.06;100.00
59859;BME280;45734;53.648;9.566;2023-05-10T11:25:13;93064.41;;;-145.06;100.00
59859;BME280;45734;53.648;9.566;2023-05-10T11:30:14;92931.47;;;-145.06;100.00
59859;BME280;45734;53.648;9.566;2023-05-10T11:35:14;92994.88;;;-145.06;100.00
59859;BME280;45734;53.648;9.566;2023-05-10T11:40:15;93105.31;;;-145.06;100.00
59859;BME280;45734;53.648;9.566;2023-05-10T11:45:15;93166.66;;;-145.06;100.00
59859;BME280;45734;53.648;9.566;2023-05-10T11:50:17;93209.59;;;-145.06;100.00
59859;BME280;45734;53.648;9.566;2023-05-10T11:55:17;93068.50;;;-145.06;100.00
59859;BME280;45734;53.648;9.566;2023-05-10T12:00:18;93101.22;;;-145.06;100.00
59859;BME280;45734;53.648;9.566;2023-05-10T12:05:18;93091.00;;;-145.06;100.00
59859;BME280;45734;53.648;9.566;2023-05-10T12:10:25;93003.06;;;-145.06;100.00
59859;BME280;45734;53.648;9.566;2023-05-10T12:15:27;92982.59;;;-145.06;100.00
59859;BME280;45734;53.648;9.566;2023-05-10T12:20:28;93011.22;;;-145.06;100.00
59859;BME280;45734;53.648;9.566;2023-05-10T12:25:36;92982.59;;;-145.06;100.00
59859;BME280;45734;53.648;9.566;2023-05-10T12:30:37;92913.06;;;-145.06;100.00
59859;BME280;45734;53.648;9.566;2023-05-10T12:35:46;92855.81;;;-145.06;100.00
59859;BME280;45734;53.648;9.566;2023-05-10T12:40:47;92902.84;;;-145.06;100.00
59859;BME280;45734;53.648;9.566;2023-05-10T12:45:47;92933.53;;;-145.06;100.00
59859;BME280;45734;53.648;9.566;2023-05-10T12:50:48;92849.69;;;-145.06;100.00
59859;BME280;45734;53.648;9.566;2023-05-10T12:55:49;92929.44;;;-145.06;100.00
59859;BME280;45734;53.648;9.566;2023-05-10T13:00:49;92880.34;;;-145.06;100.00
59859;BME280;45734;53.648;9.566;2023-05-10T13:05:51;92886.50;;;-145.06;100.00
59859;BME280;45734;53.648;9.566;2023-05-10T13:10:52;92929.44;;;-145.06;100.00
59859;BME280;45734;53.648;9.566;2023-05-10T13:15:52;92911.03;;;-145.06;100.00
59859;BME280;45734;53.648;9.566;2023-05-10T13:20:53;92851.72;;;-145.06;100.00
59859;BME280;45734;53.648;9.566;2023-05-10T13:25:53;92861.94;;;-145.06;100.00
59859;BME280;45734;53.648;9.566;2023-05-10T13:36:05;93084.84;;;-145.06;100.00
59859;BME280;45734;53.648;9.566;2023-05-10T13:41:06;93064.41;;;-145.06;100.00
59859;BME280;45734;53.648;9.566;2023-05-10T13:46:06;92974.41;;;-145.06;100.00
59859;BME280;45734;53.648;9.566;2023-05-10T13:51:06;92941.69;;;-145.06;100.00
59859;BME280;45734;53.648;9.566;2023-05-10T13:56:07;92855.81;;;-145.06;100.00
59859;BME280;45734;53.648;9.566;2023-05-10T14:01:07;92851.72;;;-145.06;100.00
59859;BME280;45734;53.648;9.566;2023-05-10T14:06:07;92851.72;;;-145.06;100.00
59859;BME280;45734;53.648;9.566;2023-05-10T14:11:08;92913.06;;;-145.06;100.00
59859;BME280;45734;53.648;9.566;2023-05-10T14:16:08;92855.81;;;-145.06;100.00
59859;BME280;45734;53.648;9.566;2023-05-10T14:21:09;92831.28;;;-145.06;100.00
59859;BME280;45734;53.648;9.566;2023-05-10T14:26:09;92794.47;;;-145.06;100.00
59859;BME280;45734;53.648;9.566;2023-05-10T14:31:09;92847.63;;;-145.06;100.00
59859;BME280;45734;53.648;9.566;2023-05-10T14:36:10;92937.63;;;-145.06;100.00
59859;BME280;45734;53.648;9.566;2023-05-10T14:41:10;92945.78;;;-145.06;100.00
59859;BME280;45734;53.648;9.566;2023-05-10T14:46:14;92978.50;;;-145.06;100.00
59859;BME280;45734;53.648;9.566;2023-05-10T14:51:14;92974.41;;;-145.06;100.00
59859;BME280;45734;53.648;9.566;2023-05-10T14:56:15;93025.56;;;-145.06;100.00
59859;BME280;45734;53.648;9.566;2023-05-10T15:01:15;93129.84;;;-145.06;100.00
59859;BME280;45734;53.648;9.566;2023-05-10T15:06:15;93103.25;;;-145.06;100.00
59859;BME280;45734;53.648;9.566;2023-05-10T15:11:16;93101.22;;;-145.06;100.00
59859;BME280;45734;53.648;9.566;2023-05-10T15:16:16;93166.66;;;-145.06;100.00
59859;BME280;45734;53.648;9.566;2023-05-10T15:21:16;93146.22;;;-145.06;100.00
59859;BME280;45734;53.648;9.566;2023-05-10T15:26:17;93133.94;;;-145.06;100.00
59859;BME280;45734;53.648;9.566;2023-05-10T15:31:17;93207.56;;;-145.06;100.00
59859;BME280;45734;53.648;9.566;2023-05-10T15:36:17;93375.28;;;-145.06;100.00
59859;BME280;45734;53.648;9.566;2023-05-10T15:41:18;93886.63;;;-145.06;100.00
59859;BME280;45734;53.648;9.566;2023-05-10T15:46:18;93990.94;;;-145.06;100.00
59859;BME280;45734;53.648;9.566;2023-05-10T15:51:18;93980.72;;;-145.06;100.00
59859;BME280;45734;53.648;9.566;2023-05-10T15:56:19;93299.59;;;-145.06;100.00
59859;BME280;45734;53.648;9.566;2023-05-10T16:01:19;93187.13;;;-145.06;100.00
59859;BME280;45734;53.648;9.566;2023-05-10T16:06:19;93097.13;;;-145.06;100.00
59859;BME280;45734;53.648;9.566;2023-05-10T16:11:20;93387.53;;;-145.06;100.00
59859;BME280;45734;53.648;9.566;2023-05-10T16:16:21;93305.72;;;-145.06;100.00
59859;BME280;45734;53.648;9.566;2023-05-10T16:21:21;93336.41;;;-145.06;100.00
59859;BME280;45734;53.648;9.566;2023-05-10T16:26:22;93943.88;;;-145.06;100.00
59859;BME280;45734;53.648;9.566;2023-05-10T16:31:23;94013.44;;;-145.06;100.00
59859;BME280;45734;53.648;9.566;2023-05-10T16:36:23;94099.34;;;-145.06;100.00
59859;BME280;45734;53.648;9.566;2023-05-10T16:41:24;94111.63;;;-145.06;100.00
59859;BME280;45734;53.648;9.566;2023-05-10T16:46:25;94125.94;;;-145.06;100.00
59859;BME280;45734;53.648;9.566;2023-05-10T16:51:26;94156.63;;;-145.06;100.00
59859;BME280;45734;53.648;9.566;2023-05-10T16:56:26;94213.91;;;-145.06;100.00
59859;BME280;45734;53.648;9.566;2023-05-10T17:01:26;94273.22;;;-145.06;100.00
59859;BME280;45734;53.648;9.566;2023-05-10T17:06:26;94250.72;;;-145.06;100.00
59859;BME280;45734;53.648;9.566;2023-05-10T17:11:27;94314.16;;;-145.06;100.00
59859;BME280;45734;53.648;9.566;2023-05-10T17:16:28;94295.72;;;-145.06;100.00
59859;BME280;45734;53.648;9.566;2023-05-10T17:21:29;94312.09;;;-145.06;100.00
59859;BME280;45734;53.648;9.566;2023-05-10T17:26:29;94369.38;;;-145.06;100.00
59859;BME280;45734;53.648;9.566;2023-05-10T17:31:29;94297.78;;;-145.06;100.00
59859;BME280;45734;53.648;9.566;2023-05-10T17:36:30;94258.91;;;-145.06;100.00
59859;BME280;45734;53.648;9.566;2023-05-10T17:41:30;94246.63;;;-145.06;100.00
59859;BME280;45734;53.648;9.566;2023-05-10T17:46:30;94285.50;;;-145.06;100.00
59859;BME280;45734;53.648;9.566;2023-05-10T17:51:31;94226.19;;;-145.06;100.00
59859;BME280;45734;53.648;9.566;2023-05-10T17:56:32;94240.50;;;-145.06;100.00
59859;BME280;45734;53.648;9.566;2023-05-10T18:01:32;94197.53;;;-145.06;100.00
59859;BME280;45734;53.648;9.566;2023-05-10T18:06:37;94271.19;;;-145.06;100.00
59859;BME280;45734;53.648;9.566;2023-05-10T18:11:37;94316.19;;;-145.06;100.00
59859;BME280;45734;53.648;9.566;2023-05-10T18:16:38;94297.78;;;-145.06;100.00
59859;BME280;45734;53.648;9.566;2023-05-10T18:21:39;94342.78;;;-145.06;100.00
59859;BME280;45734;53.648;9.566;2023-05-10T18:26:39;94283.47;;;-145.06;100.00
59859;BME280;45734;53.648;9.566;2023-05-10T18:31:39;94283.47;;;-145.06;100.00
59859;BME280;45734;53.648;9.566;2023-05-10T18:36:40;94383.69;;;-145.06;100.00
59859;BME280;45734;53.648;9.566;2023-05-10T18:41:43;94375.53;;;-145.06;100.00
59859;BME280;45734;53.648;9.566;2023-05-10T18:46:44;94381.66;;;-145.06;100.00
59859;BME280;45734;53.648;9.566;2023-05-10T18:51:45;94379.59;;;-145.06;100.00
59859;BME280;45734;53.648;9.566;2023-05-10T18:56:45;94443.03;;;-145.06;100.00
59859;BME280;45734;53.648;9.566;2023-05-10T19:01:46;94463.50;;;-145.06;100.00
59859;BME280;45734;53.648;9.566;2023-05-10T19:06:46;94447.13;;;-145.06;100.00
59859;BME280;45734;53.648;9.566;2023-05-10T19:11:46;94506.44;;;-145.06;100.00
59859;BME280;45734;53.648;9.566;2023-05-10T19:16:47;94494.16;;;-145.06;100.00
59859;BME280;45734;53.648;9.566;2023-05-10T19:21:48;94553.50;;;-145.06;100.00
59859;BME280;45734;53.648;9.566;2023-05-10T19:26:48;94576.00;;;-145.06;100.00
59859;BME280;45734;53.648;9.566;2023-05-10T19:31:49;94569.88;;;-145.06;100.00
59859;BME280;45734;53.648;9.566;2023-05-10T19:36:51;94651.69;;;-145.06;100.00
59859;BME280;45734;53.648;9.566;2023-05-10T19:41:51;94653.75;;;-145.06;100.00
59859;BME280;45734;53.648;9.566;2023-05-10T19:46:51;94645.56;;;-145.06;100.00
59859;BME280;45734;53.648;9.566;2023-05-10T19:51:52;94663.97;;;-145.06;100.00
59859;BME280;45734;53.648;9.566;2023-05-10T19:56:52;94657.84;;;-145.06;100.00
59859;BME280;45734;53.648;9.566;2023-05-10T20:01:52;94713.09;;;-145.06;100.00
59859;BME280;45734;53.648;9.566;2023-05-10T20:06:53;94711.03;;;-145.06;100.00
59859;BME280;45734;53.648;9.566;2023-05-10T20:11:53;94729.44;;;-145.06;100.00
59859;BME280;45734;53.648;9.566;2023-05-10T20:16:53;94729.44;;;-145.06;100.00
59859;BME280;45734;53.648;9.566;2023-05-10T20:21:53;94749.91;;;-145.06;100.00
59859;BME280;45734;53.648;9.566;2023-05-10T20:26:56;94725.34;;;-145.06;100.00
59859;BME280;45734;53.648;9.566;2023-05-10T20:31:57;94768.31;;;-145.06;100.00
59859;BME280;45734;53.648;9.566;2023-05-10T20:36:58;94807.19;;;-145.06;100.00
59859;BME280;45734;53.648;9.566;2023-05-10T20:41:58;94815.38;;;-145.06;100.00
59859;BME280;45734;53.648;9.566;2023-05-10T20:46:59;94839.94;;;-145.06;100.00
59859;BME280;45734;53.648;9.566;2023-05-10T20:51:59;94839.94;;;-145.06;100.00
59859;BME280;45734;53.648;9.566;2023-05-10T20:57:00;94805.16;;;-145.06;100.00
59859;BME280;45734;53.648;9.566;2023-05-10T21:02:03;94870.63;;;-145.06;100.00
59859;BME280;45734;53.648;9.566;2023-05-10T21:07:03;94844.03;;;-145.06;100.00
59859;BME280;45734;53.648;9.566;2023-05-10T21:12:03;94884.94;;;-145.06;100.00
59859;BME280;45734;53.648;9.566;2023-05-10T21:17:04;94884.94;;;-145.06;100.00
59859;BME280;45734;53.648;9.566;2023-05-10T21:22:04;94868.56;;;-145.06;100.00
59859;BME280;45734;53.648;9.566;2023-05-10T21:27:05;94882.91;;;-145.06;100.00
59859;BME280;45734;53.648;9.566;2023-05-10T21:32:06;94901.31;;;-145.06;100.00
59859;BME280;45734;53.648;9.566;2023-05-10T21:37:06;94901.31;;;-145.06;100.00
59859;BME280;45734;53.648;9.566;2023-05-10T21:42:07;94940.19;;;-145.06;100.00
59859;BME280;45734;53.648;9.566;2023-05-10T21:47:07;94948.38;;;-145.06;100.00
59859;BME280;45734;53.648;9.566;2023-05-10T21:52:07;94936.09;;;-145.06;100.00
59859;BME280;45734;53.648;9.566;2023-05-10T21:57:08;94950.41;;;-145.06;100.00
59859;BME280;45734;53.648;9.566;2023-05-10T22:02:08;94974.97;;;-145.06;100.00
59859;BME280;45734;53.648;9.566;2023-05-10T22:07:08;94993.38;;;-145.06;100.00
59859;BME280;45734;53.648;9.566;2023-05-10T22:12:08;94972.91;;;-145.06;100.00
59859;BME280;45734;53.648;9.566;2023-05-10T22:17:09;94966.78;;;-145.06;100.00
59859;BME280;45734;53.648;9.566;2023-05-10T22:22:09;95048.63;;;-145.06;100.00
59859;BME280;45734;53.648;9.566;2023-05-10T22:27:10;95052.72;;;-145.06;100.00
59859;BME280;45734;53.648;9.566;2023-05-10T22:32:10;95056.81;;;-145.06;100.00
59859;BME280;45734;53.648;9.566;2023-05-10T22:37:11;95069.09;;;-145.06;100.00
59859;BME280;45734;53.648;9.566;2023-05-10T22:42:13;95075.22;;;-145.06;100.00
59859;BME280;45734;53.648;9.566;2023-05-10T22:47:14;95116.16;;;-145.06;100.00
59859;BME280;45734;53.648;9.566;2023-05-10T22:52:15;95142.75;;;-145.06;100.00
59859;BME280;45734;53.648;9.566;2023-05-10T22:57:15;95077.28;;;-145.06;100.00
59859;BME280;45734;53.648;9.566;2023-05-10T23:02:16;95099.78;;;-145.06;100.00
59859;BME280;45734;53.648;9.566;2023-05-10T23:07:16;95107.97;;;-145.06;100.00
59859;BME280;45734;53.648;9.566;2023-05-10T23:12:17;95150.94;;;-145.06;100.00
59859;BME280;45734;53.648;9.566;2023-05-10T23:17:17;95159.13;;;-145.06;100.00
59859;BME280;45734;53.648;9.566;2023-05-10T23:22:17;95130.47;;;-145.06;100.00
59859;BME280;45734;53.648;9.566;2023-05-10T23:27:17;95161.16;;;-145.06;100.00
59859;BME280;45734;53.648;9.566;2023-05-10T23:32:18;95167.31;;;-145.06;100.00
59859;BME280;45734;53.648;9.566;2023-05-10T23:37:18;95187.75;;;-145.06;100.00
59859;BME280;45734;53.648;9.566;2023-05-10T23:42:18;95183.66;;;-145.06;100.00
59859;BME280;45734;53.648;9.566;2023-05-10T23:47:19;95210.28;;;-145.06;100.00
59859;BME280;45734;53.648;9.566;2023-05-10T23:52:19;95245.06;;;-145.06;100.00
59859;BME280;45734;53.648;9.566;2023-05-10T23:57:24;95245.06;;;-145.06;100.00
